sensor_id;sensor_type;location;lat;lon;timestamp;pressure;altitude;pressure_sealevel;temperature;humidity
23176;BME280;19910;42.652;23.332;2024-01-07T00:00:05;93135.09;;;6.08;100.00
23176;BME280;19910;42.652;23.332;2024-01-07T00:02:32;93150.69;;;6.15;100.00
23176;BME280;19910;42.652;23.332;2024-01-07T00:04:59;93145.66;;;6.01;100.00
23176;BME280;19910;42.652;23.332;2024-01-07T00:07:28;93130.84;;;6.07;100.00
23176;BME280;19910;42.652;23.332;2024-01-07T00:09:55;93121.78;;;6.12;100.00
23176;BME280;19910;42.652;23.332;2024-01-07T00:12:22;93119.88;;;6.12;100.00
23176;BME280;19910;42.652;23.332;2024-01-07T00:14:50;93121.00;;;6.23;100.00
23176;BME280;19910;42.652;23.332;2024-01-07T00:17:19;93114.06;;;5.98;100.00
23176;BME280;19910;42.652;23.332;2024-01-07T00:19:45;93106.78;;;5.98;100.00
23176;BME280;19910;42.652;23.332;2024-01-07T00:22:13;93106.44;;;6.00;100.00
23176;BME280;19910;42.652;23.332;2024-01-07T00:24:41;93098.59;;;6.07;100.00
23176;BME280;19910;42.652;23.332;2024-01-07T00:27:08;93098.16;;;6.05;100.00
23176;BME280;19910;42.652;23.332;2024-01-07T00:29:35;93102.81;;;5.59;100.00
23176;BME280;19910;42.652;23.332;2024-01-07T00:32:02;93091.84;;;5.64;100.00
23176;BME280;19910;42.652;23.332;2024-01-07T00:34:29;93079.75;;;5.58;100.00
23176;BME280;19910;42.652;23.332;2024-01-07T00:36:56;93072.56;;;5.50;100.00
23176;BME280;19910;42.652;23.332;2024-01-07T00:39:23;93072.56;;;5.62;100.00
23176;BME280;19910;42.652;23.332;2024-01-07T00:41:51;93070.59;;;5.59;100.00
23176;BME280;19910;42.652;23.332;2024-01-07T00:44:18;93075.72;;;5.64;100.00
23176;BME280;19910;42.652;23.332;2024-01-07T00:46:45;93070.91;;;5.82;100.00
23176;BME280;19910;42.652;23.332;2024-01-07T00:49:12;93054.91;;;5.74;100.00
23176;BME280;19910;42.652;23.332;2024-01-07T00:51:38;93056.72;;;6.06;100.00
23176;BME280;19910;42.652;23.332;2024-01-07T00:54:05;93041.69;;;6.17;100.00
23176;BME280;19910;42.652;23.332;2024-01-07T00:56:32;93047.06;;;6.17;100.00
23176;BME280;19910;42.652;23.332;2024-01-07T00:59:00;93039.47;;;5.95;100.00
23176;BME280;19910;42.652;23.332;2024-01-07T01:01:27;93041.81;;;6.21;100.00
23176;BME280;19910;42.652;23.332;2024-01-07T01:03:54;93038.81;;;5.98;100.00
23176;BME280;19910;42.652;23.332;2024-01-07T01:06:23;93038.56;;;5.79;100.00
23176;BME280;19910;42.652;23.332;2024-01-07T01:08:50;93034.75;;;5.55;100.00
23176;BME280;19910;42.652;23.332;2024-01-07T01:11:16;93023.09;;;5.88;100.00
23176;BME280;19910;42.652;23.332;2024-01-07T01:13:43;93030.06;;;6.13;100.00
23176;BME280;19910;42.652;23.332;2024-01-07T01:16:12;93006.75;;;6.17;100.00
23176;BME280;19910;42.652;23.332;2024-01-07T01:18:38;92998.41;;;6.34;100.00
23176;BME280;19910;42.652;23.332;2024-01-07T01:21:05;92995.50;;;6.39;100.00
23176;BME280;19910;42.652;23.332;2024-01-07T01:23:33;92985.13;;;6.26;100.00
23176;BME280;19910;42.652;23.332;2024-01-07T01:26:00;92975.59;;;6.16;100.00
23176;BME280;19910;42.652;23.332;2024-01-07T01:28:27;92974.44;;;6.29;100.00
23176;BME280;19910;42.652;23.332;2024-01-07T01:30:54;92964.97;;;6.20;100.00
23176;BME280;19910;42.652;23.332;2024-01-07T01:33:22;92954.69;;;6.10;100.00
23176;BME280;19910;42.652;23.332;2024-01-07T01:35:49;92960.53;;;6.39;100.00
23176;BME280;19910;42.652;23.332;2024-01-07T01:38:19;92955.28;;;6.59;100.00
23176;BME280;19910;42.652;23.332;2024-01-07T01:40:51;92944.91;;;6.73;100.00
23176;BME280;19910;42.652;23.332;2024-01-07T01:43:22;92934.94;;;6.89;100.00
23176;BME280;19910;42.652;23.332;2024-01-07T01:45:49;92931.22;;;6.78;100.00
23176;BME280;19910;42.652;23.332;2024-01-07T01:48:16;92927.19;;;6.72;100.00
23176;BME280;19910;42.652;23.332;2024-01-07T01:50:45;92912.25;;;6.59;100.00
23176;BME280;19910;42.652;23.332;2024-01-07T01:53:13;92895.75;;;6.45;100.00
23176;BME280;19910;42.652;23.332;2024-01-07T01:55:40;92898.34;;;6.41;100.00
23176;BME280;19910;42.652;23.332;2024-01-07T01:58:09;92893.59;;;6.50;100.00
23176;BME280;19910;42.652;23.332;2024-01-07T02:00:36;92897.94;;;6.55;100.00
23176;BME280;19910;42.652;23.332;2024-01-07T02:03:03;92893.38;;;6.43;100.00
23176;BME280;19910;42.652;23.332;2024-01-07T02:05:30;92900.66;;;6.42;100.00
23176;BME280;19910;42.652;23.332;2024-01-07T02:07:59;92906.59;;;6.48;100.00
23176;BME280;19910;42.652;23.332;2024-01-07T02:10:26;92909.13;;;6.57;100.00
23176;BME280;19910;42.652;23.332;2024-01-07T02:12:54;92903.94;;;6.64;100.00
23176;BME280;19910;42.652;23.332;2024-01-07T02:15:22;92889.69;;;6.48;100.00
23176;BME280;19910;42.652;23.332;2024-01-07T02:17:49;92888.25;;;6.66;100.00
23176;BME280;19910;42.652;23.332;2024-01-07T02:20:15;92882.25;;;6.72;100.00
23176;BME280;19910;42.652;23.332;2024-01-07T02:22:42;92872.84;;;6.51;100.00
23176;BME280;19910;42.652;23.332;2024-01-07T02:25:10;92842.75;;;6.92;100.00
23176;BME280;19910;42.652;23.332;2024-01-07T02:27:37;92809.09;;;7.53;100.00
23176;BME280;19910;42.652;23.332;2024-01-07T02:30:08;92812.59;;;7.72;100.00
23176;BME280;19910;42.652;23.332;2024-01-07T02:32:35;92803.44;;;8.15;100.00
23176;BME280;19910;42.652;23.332;2024-01-07T02:35:03;92787.03;;;8.66;100.00
23176;BME280;19910;42.652;23.332;2024-01-07T02:37:30;92784.84;;;8.98;100.00
23176;BME280;19910;42.652;23.332;2024-01-07T02:39:57;92796.28;;;9.14;100.00
23176;BME280;19910;42.652;23.332;2024-01-07T02:42:26;92785.28;;;9.26;100.00
23176;BME280;19910;42.652;23.332;2024-01-07T02:44:53;92797.00;;;9.38;100.00
23176;BME280;19910;42.652;23.332;2024-01-07T02:47:19;92791.66;;;9.41;100.00
23176;BME280;19910;42.652;23.332;2024-01-07T02:49:46;92797.09;;;9.45;100.00
23176;BME280;19910;42.652;23.332;2024-01-07T02:52:13;92800.28;;;9.50;100.00
23176;BME280;19910;42.652;23.332;2024-01-07T02:54:40;92794.59;;;9.59;100.00
23176;BME280;19910;42.652;23.332;2024-01-07T02:57:07;92798.38;;;9.84;100.00
23176;BME280;19910;42.652;23.332;2024-01-07T02:59:35;92800.06;;;9.92;100.00
23176;BME280;19910;42.652;23.332;2024-01-07T03:02:01;92813.25;;;9.97;100.00
23176;BME280;19910;42.652;23.332;2024-01-07T03:04:28;92816.78;;;10.02;100.00
23176;BME280;19910;42.652;23.332;2024-01-07T03:06:55;92807.19;;;10.08;100.00
23176;BME280;19910;42.652;23.332;2024-01-07T03:09:22;92804.91;;;10.10;100.00
23176;BME280;19910;42.652;23.332;2024-01-07T03:11:48;92818.81;;;10.12;100.00
23176;BME280;19910;42.652;23.332;2024-01-07T03:14:15;92820.31;;;10.06;100.00
23176;BME280;19910;42.652;23.332;2024-01-07T03:16:47;92828.72;;;10.01;100.00
23176;BME280;19910;42.652;23.332;2024-01-07T03:19:13;92832.59;;;9.99;100.00
23176;BME280;19910;42.652;23.332;2024-01-07T03:21:48;92831.13;;;10.06;100.00
23176;BME280;19910;42.652;23.332;2024-01-07T03:24:15;92837.19;;;9.95;100.00
23176;BME280;19910;42.652;23.332;2024-01-07T03:26:42;92841.75;;;9.91;100.00
23176;BME280;19910;42.652;23.332;2024-01-07T03:29:09;92841.75;;;9.91;100.00
23176;BME280;19910;42.652;23.332;2024-01-07T03:31:36;92838.31;;;9.12;100.00
23176;BME280;19910;42.652;23.332;2024-01-07T03:34:04;92838.44;;;8.73;100.00
23176;BME280;19910;42.652;23.332;2024-01-07T03:36:33;92835.66;;;8.47;100.00
23176;BME280;19910;42.652;23.332;2024-01-07T03:39:00;92827.94;;;8.45;100.00
23176;BME280;19910;42.652;23.332;2024-01-07T03:41:27;92826.50;;;8.13;100.00
23176;BME280;19910;42.652;23.332;2024-01-07T03:43:53;92817.13;;;8.26;100.00
23176;BME280;19910;42.652;23.332;2024-01-07T03:46:23;92816.50;;;7.94;100.00
23176;BME280;19910;42.652;23.332;2024-01-07T03:48:53;92817.88;;;8.04;100.00
23176;BME280;19910;42.652;23.332;2024-01-07T03:51:21;92820.13;;;8.02;100.00
23176;BME280;19910;42.652;23.332;2024-01-07T03:53:48;92824.38;;;7.83;100.00
23176;BME280;19910;42.652;23.332;2024-01-07T03:56:18;92825.81;;;7.77;100.00
23176;BME280;19910;42.652;23.332;2024-01-07T03:58:45;92816.03;;;7.89;100.00
23176;BME280;19910;42.652;23.332;2024-01-07T04:01:16;92821.41;;;7.89;100.00
23176;BME280;19910;42.652;23.332;2024-01-07T04:03:46;92809.34;;;7.63;100.00
23176;BME280;19910;42.652;23.332;2024-01-07T04:06:15;92808.31;;;7.52;100.00
23176;BME280;19910;42.652;23.332;2024-01-07T04:08:44;92803.59;;;7.45;100.00
23176;BME280;19910;42.652;23.332;2024-01-07T04:11:10;92802.03;;;7.44;100.00
23176;BME280;19910;42.652;23.332;2024-01-07T04:13:37;92802.09;;;7.48;100.00
23176;BME280;19910;42.652;23.332;2024-01-07T04:16:04;92800.06;;;7.61;100.00
23176;BME280;19910;42.652;23.332;2024-01-07T04:18:31;92808.69;;;7.70;100.00
23176;BME280;19910;42.652;23.332;2024-01-07T04:21:02;92804.97;;;7.74;100.00
23176;BME280;19910;42.652;23.332;2024-01-07T04:23:29;92805.66;;;7.71;100.00
23176;BME280;19910;42.652;23.332;2024-01-07T04:25:59;92804.53;;;7.72;100.00
23176;BME280;19910;42.652;23.332;2024-01-07T04:28:26;92805.81;;;7.78;100.00
23176;BME280;19910;42.652;23.332;2024-01-07T04:30:53;92794.47;;;7.89;100.00
23176;BME280;19910;42.652;23.332;2024-01-07T04:33:20;92780.28;;;7.92;100.00
23176;BME280;19910;42.652;23.332;2024-01-07T04:35:49;92784.31;;;7.82;100.00
23176;BME280;19910;42.652;23.332;2024-01-07T04:38:17;92769.94;;;7.74;100.00
23176;BME280;19910;42.652;23.332;2024-01-07T04:40:48;92766.44;;;7.74;100.00
23176;BME280;19910;42.652;23.332;2024-01-07T04:43:16;92769.06;;;7.90;100.00
23176;BME280;19910;42.652;23.332;2024-01-07T04:45:43;92763.94;;;8.04;100.00
23176;BME280;19910;42.652;23.332;2024-01-07T04:48:13;92777.72;;;7.99;100.00
23176;BME280;19910;42.652;23.332;2024-01-07T04:50:40;92776.03;;;7.91;100.00
23176;BME280;19910;42.652;23.332;2024-01-07T04:53:07;92780.41;;;7.79;100.00
23176;BME280;19910;42.652;23.332;2024-01-07T04:55:34;92782.66;;;7.97;100.00
23176;BME280;19910;42.652;23.332;2024-01-07T04:58:01;92784.94;;;7.95;100.00
23176;BME280;19910;42.652;23.332;2024-01-07T05:00:33;92784.50;;;7.93;100.00
23176;BME280;19910;42.652;23.332;2024-01-07T05:03:02;92779.44;;;7.88;100.00
23176;BME280;19910;42.652;23.332;2024-01-07T05:05:29;92785.25;;;7.90;100.00
23176;BME280;19910;42.652;23.332;2024-01-07T05:07:56;92779.00;;;7.47;100.00
23176;BME280;19910;42.652;23.332;2024-01-07T05:10:24;92767.34;;;7.43;100.00
23176;BME280;19910;42.652;23.332;2024-01-07T05:12:51;92778.38;;;7.19;100.00
23176;BME280;19910;42.652;23.332;2024-01-07T05:15:18;92774.00;;;7.30;100.00
23176;BME280;19910;42.652;23.332;2024-01-07T05:17:46;92766.88;;;7.37;100.00
23176;BME280;19910;42.652;23.332;2024-01-07T05:20:15;92774.09;;;7.33;100.00
23176;BME280;19910;42.652;23.332;2024-01-07T05:22:42;92781.34;;;7.48;100.00
23176;BME280;19910;42.652;23.332;2024-01-07T05:25:09;92766.28;;;7.28;100.00
23176;BME280;19910;42.652;23.332;2024-01-07T05:27:36;92776.78;;;7.53;100.00
23176;BME280;19910;42.652;23.332;2024-01-07T05:30:06;92771.69;;;7.47;100.00
23176;BME280;19910;42.652;23.332;2024-01-07T05:32:33;92769.34;;;7.46;100.00
23176;BME280;19910;42.652;23.332;2024-01-07T05:35:01;92763.25;;;7.68;100.00
23176;BME280;19910;42.652;23.332;2024-01-07T05:37:29;92774.38;;;7.86;100.00
23176;BME280;19910;42.652;23.332;2024-01-07T05:39:56;92782.09;;;8.07;100.00
23176;BME280;19910;42.652;23.332;2024-01-07T05:42:30;92761.03;;;7.93;100.00
23176;BME280;19910;42.652;23.332;2024-01-07T05:44:59;92749.97;;;7.98;100.00
23176;BME280;19910;42.652;23.332;2024-01-07T05:47:26;92751.19;;;7.81;100.00
23176;BME280;19910;42.652;23.332;2024-01-07T05:49:52;92763.53;;;7.82;100.00
23176;BME280;19910;42.652;23.332;2024-01-07T05:52:24;92771.81;;;7.55;100.00
23176;BME280;19910;42.652;23.332;2024-01-07T05:54:52;92796.13;;;7.39;100.00
23176;BME280;19910;42.652;23.332;2024-01-07T05:57:19;92785.72;;;7.37;100.00
23176;BME280;19910;42.652;23.332;2024-01-07T05:59:46;92789.75;;;7.47;100.00
23176;BME280;19910;42.652;23.332;2024-01-07T06:02:13;92790.75;;;7.58;100.00
23176;BME280;19910;42.652;23.332;2024-01-07T06:04:40;92765.78;;;7.42;100.00
23176;BME280;19910;42.652;23.332;2024-01-07T06:07:06;92750.75;;;7.22;100.00
23176;BME280;19910;42.652;23.332;2024-01-07T06:09:35;92752.91;;;7.32;100.00
23176;BME280;19910;42.652;23.332;2024-01-07T06:12:02;92761.97;;;7.43;100.00
23176;BME280;19910;42.652;23.332;2024-01-07T06:14:29;92771.41;;;7.53;100.00
23176;BME280;19910;42.652;23.332;2024-01-07T06:16:56;92770.03;;;7.43;100.00
23176;BME280;19910;42.652;23.332;2024-01-07T06:19:23;92772.75;;;7.62;100.00
23176;BME280;19910;42.652;23.332;2024-01-07T06:21:49;92753.81;;;7.59;100.00
23176;BME280;19910;42.652;23.332;2024-01-07T06:24:16;92764.09;;;7.53;100.00
23176;BME280;19910;42.652;23.332;2024-01-07T06:26:44;92763.63;;;7.47;100.00
23176;BME280;19910;42.652;23.332;2024-01-07T06:29:11;92777.44;;;7.46;100.00
23176;BME280;19910;42.652;23.332;2024-01-07T06:31:43;92774.56;;;7.20;100.00
23176;BME280;19910;42.652;23.332;2024-01-07T06:34:09;92773.69;;;7.16;100.00
23176;BME280;19910;42.652;23.332;2024-01-07T06:36:39;92776.63;;;7.26;100.00
23176;BME280;19910;42.652;23.332;2024-01-07T06:39:05;92782.16;;;7.33;100.00
23176;BME280;19910;42.652;23.332;2024-01-07T06:41:33;92800.22;;;7.33;100.00
23176;BME280;19910;42.652;23.332;2024-01-07T06:44:01;92802.81;;;7.45;100.00
23176;BME280;19910;42.652;23.332;2024-01-07T06:46:28;92800.09;;;7.45;100.00
23176;BME280;19910;42.652;23.332;2024-01-07T06:48:54;92805.38;;;7.57;100.00
23176;BME280;19910;42.652;23.332;2024-01-07T06:51:21;92792.41;;;8.01;100.00
23176;BME280;19910;42.652;23.332;2024-01-07T06:53:48;92785.47;;;10.75;100.00
23176;BME280;19910;42.652;23.332;2024-01-07T06:56:15;92781.78;;;10.16;100.00
23176;BME280;19910;42.652;23.332;2024-01-07T06:58:43;92790.44;;;9.65;100.00
23176;BME280;19910;42.652;23.332;2024-01-07T07:01:11;92798.38;;;9.24;100.00
23176;BME280;19910;42.652;23.332;2024-01-07T07:03:40;92802.31;;;8.81;100.00
23176;BME280;19910;42.652;23.332;2024-01-07T07:06:07;92796.31;;;8.91;100.00
23176;BME280;19910;42.652;23.332;2024-01-07T07:08:34;92805.03;;;8.59;100.00
23176;BME280;19910;42.652;23.332;2024-01-07T07:11:01;92794.78;;;8.45;100.00
23176;BME280;19910;42.652;23.332;2024-01-07T07:13:28;92802.00;;;8.64;100.00
23176;BME280;19910;42.652;23.332;2024-01-07T07:15:55;92791.78;;;8.73;100.00
23176;BME280;19910;42.652;23.332;2024-01-07T07:18:23;92778.88;;;8.63;100.00
23176;BME280;19910;42.652;23.332;2024-01-07T07:20:50;92776.31;;;8.70;100.00
23176;BME280;19910;42.652;23.332;2024-01-07T07:23:17;92763.59;;;8.70;100.00
23176;BME280;19910;42.652;23.332;2024-01-07T07:25:43;92773.06;;;8.83;100.00
23176;BME280;19910;42.652;23.332;2024-01-07T07:28:10;92764.06;;;9.02;100.00
23176;BME280;19910;42.652;23.332;2024-01-07T07:30:37;92758.84;;;9.13;100.00
23176;BME280;19910;42.652;23.332;2024-01-07T07:33:04;92778.25;;;9.48;100.00
23176;BME280;19910;42.652;23.332;2024-01-07T07:35:35;92788.16;;;9.67;100.00
23176;BME280;19910;42.652;23.332;2024-01-07T07:38:04;92785.28;;;9.86;100.00
23176;BME280;19910;42.652;23.332;2024-01-07T07:40:31;92784.00;;;10.07;100.00
23176;BME280;19910;42.652;23.332;2024-01-07T07:42:58;92773.63;;;9.79;100.00
23176;BME280;19910;42.652;23.332;2024-01-07T07:45:25;92773.84;;;9.10;100.00
23176;BME280;19910;42.652;23.332;2024-01-07T07:47:52;92776.16;;;8.85;100.00
23176;BME280;19910;42.652;23.332;2024-01-07T07:50:18;92767.59;;;8.80;100.00
23176;BME280;19910;42.652;23.332;2024-01-07T07:52:49;92756.50;;;8.85;100.00
23176;BME280;19910;42.652;23.332;2024-01-07T07:55:16;92747.88;;;9.02;100.00
23176;BME280;19910;42.652;23.332;2024-01-07T07:57:43;92765.63;;;9.03;100.00
23176;BME280;19910;42.652;23.332;2024-01-07T08:00:12;92762.09;;;9.25;100.00
23176;BME280;19910;42.652;23.332;2024-01-07T08:02:40;92767.44;;;9.78;100.00
23176;BME280;19910;42.652;23.332;2024-01-07T08:05:07;92761.38;;;9.88;100.00
23176;BME280;19910;42.652;23.332;2024-01-07T08:07:34;92758.50;;;10.08;100.00
23176;BME280;19910;42.652;23.332;2024-01-07T08:10:03;92755.44;;;10.13;100.00
23176;BME280;19910;42.652;23.332;2024-01-07T08:12:30;92773.00;;;9.92;100.00
23176;BME280;19910;42.652;23.332;2024-01-07T08:14:56;92767.09;;;10.17;100.00
23176;BME280;19910;42.652;23.332;2024-01-07T08:17:23;92762.09;;;9.85;100.00
23176;BME280;19910;42.652;23.332;2024-01-07T08:19:50;92759.63;;;9.73;100.00
23176;BME280;19910;42.652;23.332;2024-01-07T08:22:17;92765.66;;;10.26;100.00
23176;BME280;19910;42.652;23.332;2024-01-07T08:24:44;92761.91;;;9.71;100.00
23176;BME280;19910;42.652;23.332;2024-01-07T08:27:12;92758.47;;;9.44;100.00
23176;BME280;19910;42.652;23.332;2024-01-07T08:29:42;92758.31;;;9.60;100.00
23176;BME280;19910;42.652;23.332;2024-01-07T08:32:09;92755.13;;;9.84;100.00
23176;BME280;19910;42.652;23.332;2024-01-07T08:34:37;92763.25;;;10.18;100.00
23176;BME280;19910;42.652;23.332;2024-01-07T08:37:04;92762.03;;;10.49;100.00
23176;BME280;19910;42.652;23.332;2024-01-07T08:39:31;92755.94;;;10.59;100.00
23176;BME280;19910;42.652;23.332;2024-01-07T08:41:58;92766.16;;;10.80;100.00
23176;BME280;19910;42.652;23.332;2024-01-07T08:44:26;92764.81;;;11.00;100.00
23176;BME280;19910;42.652;23.332;2024-01-07T08:46:53;92760.88;;;10.94;100.00
23176;BME280;19910;42.652;23.332;2024-01-07T08:49:20;92752.22;;;10.74;99.01
23176;BME280;19910;42.652;23.332;2024-01-07T08:51:47;92763.81;;;10.75;100.00
23176;BME280;19910;42.652;23.332;2024-01-07T08:54:13;92756.66;;;10.52;100.00
23176;BME280;19910;42.652;23.332;2024-01-07T08:56:40;92755.75;;;10.38;100.00
23176;BME280;19910;42.652;23.332;2024-01-07T08:59:07;92752.09;;;10.60;100.00
23176;BME280;19910;42.652;23.332;2024-01-07T09:01:35;92736.16;;;10.51;100.00
23176;BME280;19910;42.652;23.332;2024-01-07T09:04:02;92749.91;;;10.80;100.00
23176;BME280;19910;42.652;23.332;2024-01-07T09:06:29;92744.94;;;10.41;100.00
23176;BME280;19910;42.652;23.332;2024-01-07T09:08:58;92749.41;;;10.23;100.00
23176;BME280;19910;42.652;23.332;2024-01-07T09:11:25;92756.53;;;10.38;100.00
23176;BME280;19910;42.652;23.332;2024-01-07T09:13:51;92757.28;;;10.35;100.00
23176;BME280;19910;42.652;23.332;2024-01-07T09:16:18;92756.47;;;10.75;100.00
23176;BME280;19910;42.652;23.332;2024-01-07T09:18:47;92764.50;;;11.12;100.00
23176;BME280;19910;42.652;23.332;2024-01-07T09:21:14;92761.25;;;11.47;97.88
23176;BME280;19910;42.652;23.332;2024-01-07T09:23:40;92758.84;;;12.00;97.46
23176;BME280;19910;42.652;23.332;2024-01-07T09:26:08;92754.25;;;11.43;95.58
23176;BME280;19910;42.652;23.332;2024-01-07T09:28:34;92753.28;;;11.14;95.34
23176;BME280;19910;42.652;23.332;2024-01-07T09:31:01;92758.03;;;10.76;97.27
23176;BME280;19910;42.652;23.332;2024-01-07T09:33:28;92741.53;;;10.92;98.95
23176;BME280;19910;42.652;23.332;2024-01-07T09:35:57;92751.59;;;10.95;97.17
23176;BME280;19910;42.652;23.332;2024-01-07T09:38:23;92741.94;;;11.63;98.67
23176;BME280;19910;42.652;23.332;2024-01-07T09:40:51;92737.47;;;11.92;93.94
23176;BME280;19910;42.652;23.332;2024-01-07T09:43:18;92736.03;;;12.33;93.29
23176;BME280;19910;42.652;23.332;2024-01-07T09:45:46;92728.34;;;12.74;88.85
23176;BME280;19910;42.652;23.332;2024-01-07T09:48:13;92735.31;;;12.72;89.17
23176;BME280;19910;42.652;23.332;2024-01-07T09:50:40;92732.19;;;12.38;89.33
23176;BME280;19910;42.652;23.332;2024-01-07T09:53:11;92737.97;;;12.22;87.75
23176;BME280;19910;42.652;23.332;2024-01-07T09:55:47;92734.50;;;12.39;89.61
23176;BME280;19910;42.652;23.332;2024-01-07T09:58:17;92734.13;;;12.41;87.79
23176;BME280;19910;42.652;23.332;2024-01-07T10:00:44;92720.56;;;12.48;86.05
23176;BME280;19910;42.652;23.332;2024-01-07T10:03:11;92715.13;;;12.48;86.28
23176;BME280;19910;42.652;23.332;2024-01-07T10:05:39;92726.41;;;13.07;85.32
23176;BME280;19910;42.652;23.332;2024-01-07T10:08:06;92717.09;;;13.08;83.49
23176;BME280;19910;42.652;23.332;2024-01-07T10:10:36;92722.06;;;12.21;85.30
23176;BME280;19910;42.652;23.332;2024-01-07T10:13:06;92727.47;;;12.17;86.00
23176;BME280;19910;42.652;23.332;2024-01-07T10:15:33;92716.63;;;12.14;87.81
23176;BME280;19910;42.652;23.332;2024-01-07T10:18:03;92721.66;;;11.35;88.41
23176;BME280;19910;42.652;23.332;2024-01-07T10:20:31;92722.78;;;11.27;90.99
23176;BME280;19910;42.652;23.332;2024-01-07T10:22:59;92712.28;;;11.22;91.42
23176;BME280;19910;42.652;23.332;2024-01-07T10:25:26;92712.00;;;10.80;91.08
23176;BME280;19910;42.652;23.332;2024-01-07T10:27:59;92697.41;;;10.95;92.22
23176;BME280;19910;42.652;23.332;2024-01-07T10:30:25;92693.72;;;11.17;92.08
23176;BME280;19910;42.652;23.332;2024-01-07T10:32:55;92682.56;;;11.33;90.63
23176;BME280;19910;42.652;23.332;2024-01-07T10:35:27;92683.72;;;11.35;89.77
23176;BME280;19910;42.652;23.332;2024-01-07T10:37:54;92686.28;;;11.83;86.84
23176;BME280;19910;42.652;23.332;2024-01-07T10:40:21;92671.38;;;11.42;87.16
23176;BME280;19910;42.652;23.332;2024-01-07T10:42:49;92684.56;;;11.47;87.49
23176;BME280;19910;42.652;23.332;2024-01-07T10:45:19;92677.59;;;11.46;88.29
23176;BME280;19910;42.652;23.332;2024-01-07T10:47:48;92688.47;;;11.53;87.64
23176;BME280;19910;42.652;23.332;2024-01-07T10:50:17;92671.50;;;11.73;87.81
23176;BME280;19910;42.652;23.332;2024-01-07T10:52:49;92672.34;;;11.92;86.91
23176;BME280;19910;42.652;23.332;2024-01-07T10:55:18;92681.75;;;12.30;86.92
23176;BME280;19910;42.652;23.332;2024-01-07T10:57:46;92678.66;;;12.35;85.09
23176;BME280;19910;42.652;23.332;2024-01-07T11:00:16;92662.75;;;12.33;84.63
23176;BME280;19910;42.652;23.332;2024-01-07T11:03:02;92668.88;;;11.95;85.49
23176;BME280;19910;42.652;23.332;2024-01-07T11:05:36;92678.50;;;11.74;87.46
23176;BME280;19910;42.652;23.332;2024-01-07T11:08:07;92678.56;;;12.03;87.51
23176;BME280;19910;42.652;23.332;2024-01-07T11:10:41;92675.91;;;12.24;85.72
23176;BME280;19910;42.652;23.332;2024-01-07T11:13:10;92679.44;;;12.67;84.71
23176;BME280;19910;42.652;23.332;2024-01-07T11:15:52;92665.47;;;12.69;83.82
23176;BME280;19910;42.652;23.332;2024-01-07T11:18:22;92679.44;;;12.81;85.39
23176;BME280;19910;42.652;23.332;2024-01-07T11:20:49;92677.91;;;12.66;84.04
23176;BME280;19910;42.652;23.332;2024-01-07T11:23:30;92672.81;;;12.12;84.35
23176;BME280;19910;42.652;23.332;2024-01-07T11:25:58;92676.78;;;11.42;87.00
23176;BME280;19910;42.652;23.332;2024-01-07T11:28:50;92664.75;;;11.35;88.09
23176;BME280;19910;42.652;23.332;2024-01-07T11:31:19;92674.56;;;11.61;87.44
23176;BME280;19910;42.652;23.332;2024-01-07T11:33:48;92677.06;;;12.09;85.98
23176;BME280;19910;42.652;23.332;2024-01-07T11:36:15;92675.53;;;12.22;84.39
23176;BME280;19910;42.652;23.332;2024-01-07T11:38:43;92663.88;;;12.22;84.63
23176;BME280;19910;42.652;23.332;2024-01-07T11:41:12;92670.53;;;12.70;83.43
23176;BME280;19910;42.652;23.332;2024-01-07T11:43:52;92668.56;;;12.96;82.27
23176;BME280;19910;42.652;23.332;2024-01-07T11:46:20;92664.66;;;13.18;81.73
23176;BME280;19910;42.652;23.332;2024-01-07T11:48:49;92670.09;;;13.18;81.21
23176;BME280;19910;42.652;23.332;2024-01-07T11:51:16;92677.03;;;13.40;80.37
23176;BME280;19910;42.652;23.332;2024-01-07T11:53:46;92687.16;;;13.36;79.90
23176;BME280;19910;42.652;23.332;2024-01-07T11:56:14;92676.25;;;13.50;80.00
23176;BME280;19910;42.652;23.332;2024-01-07T11:58:41;92673.09;;;13.56;80.14
23176;BME280;19910;42.652;23.332;2024-01-07T12:01:08;92667.97;;;13.79;80.14
23176;BME280;19910;42.652;23.332;2024-01-07T12:03:34;92675.59;;;14.12;78.26
23176;BME280;19910;42.652;23.332;2024-01-07T12:06:04;92655.91;;;13.83;77.11
23176;BME280;19910;42.652;23.332;2024-01-07T12:08:30;92666.63;;;14.19;78.12
23176;BME280;19910;42.652;23.332;2024-01-07T12:10:59;92667.44;;;14.09;77.24
23176;BME280;19910;42.652;23.332;2024-01-07T12:13:26;92658.66;;;13.80;77.86
23176;BME280;19910;42.652;23.332;2024-01-07T12:15:53;92665.03;;;13.34;78.72
23176;BME280;19910;42.652;23.332;2024-01-07T12:18:20;92675.09;;;13.48;79.15
23176;BME280;19910;42.652;23.332;2024-01-07T12:20:55;92674.66;;;13.53;79.16
23176;BME280;19910;42.652;23.332;2024-01-07T12:23:24;92674.69;;;13.46;79.89
23176;BME280;19910;42.652;23.332;2024-01-07T12:25:51;92668.56;;;13.10;80.20
23176;BME280;19910;42.652;23.332;2024-01-07T12:28:18;92669.75;;;12.80;81.75
23176;BME280;19910;42.652;23.332;2024-01-07T12:30:45;92670.13;;;12.79;82.22
23176;BME280;19910;42.652;23.332;2024-01-07T12:33:16;92675.56;;;12.75;82.74
23176;BME280;19910;42.652;23.332;2024-01-07T12:35:45;92677.13;;;12.69;83.03
23176;BME280;19910;42.652;23.332;2024-01-07T12:38:12;92673.19;;;12.14;84.35
23176;BME280;19910;42.652;23.332;2024-01-07T12:40:40;92668.53;;;12.18;84.93
23176;BME280;19910;42.652;23.332;2024-01-07T12:43:07;92676.31;;;12.23;83.91
23176;BME280;19910;42.652;23.332;2024-01-07T12:45:33;92672.06;;;12.36;83.78
23176;BME280;19910;42.652;23.332;2024-01-07T12:48:00;92671.66;;;12.27;83.60
23176;BME280;19910;42.652;23.332;2024-01-07T12:50:28;92675.19;;;12.52;83.26